Time;durP1;ratioP1;P1;durP2;ratioP2;P2;SDS_P1;SDS_P2;PMS_P1;PMS_P2;Temp;Humidity;BMP_temperature;BMP_pressure;BME280_temperature;BME280_humidity;BME280_pressure;Samples;Min_cycle;Max_cycle;Signal;HPM_P1;HPM_P2
2022/08/30 00:02:51;;;;;;;6.20;1.88;;;;;;;;;;5049118;28;20724;-17
2022/08/30 00:05:18;;;;;;;4.90;2.63;;;;;;;;;;5050160;28;20297;-17
2022/08/30 00:07:46;;;;;;;5.45;2.20;;;;;;;;;;5050428;28;20285;-17
2022/08/30 00:10:13;;;;;;;3.60;2.00;;;;;;;;;;5049232;28;20241;-16
2022/08/30 00:12:42;;;;;;;10.25;2.47;;;;;;;;;;5045794;28;20238;-17
2022/08/30 00:15:09;;;;;;;4.97;2.20;;;;;;;;;;5042874;28;20241;-17
2022/08/30 00:17:38;;;;;;;5.82;2.15;;;;;;;;;;5050177;28;20296;-16
2022/08/30 00:20:08;;;;;;;4.40;2.13;;;;;;;;;;5048799;28;20230;-16
2022/08/30 00:22:35;;;;;;;4.40;1.73;;;;;;;;;;5049861;28;20241;-16
2022/08/30 00:25:03;;;;;;;5.00;1.80;;;;;;;;;;5050163;28;20618;-16
2022/08/30 00:27:30;;;;;;;3.55;1.88;;;;;;;;;;5049655;28;20234;-16
2022/08/30 00:29:58;;;;;;;3.50;2.00;;;;;;;;;;5048138;28;20241;-16
2022/08/30 00:32:25;;;;;;;2.97;2.10;;;;;;;;;;5049245;28;20225;-16
2022/08/30 00:34:53;;;;;;;3.55;1.77;;;;;;;;;;5049901;28;20241;-16
2022/08/30 00:37:22;;;;;;;3.65;2.00;;;;;;;;;;5049932;28;20230;-16
2022/08/30 00:39:49;;;;;;;7.00;2.15;;;;;;;;;;5048743;28;20230;-16
2022/08/30 00:42:17;;;;;;;7.05;2.22;;;;;;;;;;5038332;28;20244;-17
2022/08/30 00:44:44;;;;;;;6.70;2.03;;;;;;;;;;5050156;28;20241;-16
2022/08/30 00:47:12;;;;;;;4.13;1.80;;;;;;;;;;5049608;28;20250;-17
2022/08/30 00:49:39;;;;;;;4.03;1.95;;;;;;;;;;5049814;28;20241;-16
2022/08/30 00:52:07;;;;;;;4.18;2.08;;;;;;;;;;5048685;28;20693;-16
2022/08/30 00:54:36;;;;;;;4.15;2.03;;;;;;;;;;5049702;28;20238;-16
2022/08/30 00:57:03;;;;;;;3.55;2.13;;;;;;;;;;5049845;28;20237;-16
2022/08/30 00:59:30;;;;;;;4.15;2.10;;;;;;;;;;5049507;28;20226;-16
2022/08/30 01:01:58;;;;;;;4.28;2.25;;;;;;;;;;5049037;28;20230;-17
2022/08/30 01:04:26;;;;;;;3.45;2.17;;;;;;;;;;5050295;28;20625;-17
2022/08/30 01:06:53;;;;;;;3.10;1.90;;;;;;;;;;5049960;28;21018;-17
2022/08/30 01:09:21;;;;;;;3.85;2.13;;;;;;;;;;5047955;28;20233;-18
2022/08/30 01:11:50;;;;;;;3.95;1.98;;;;;;;;;;5048386;28;21002;-17
2022/08/30 01:14:17;;;;;;;4.28;1.92;;;;;;;;;;5046547;28;20276;-17
2022/08/30 01:16:45;;;;;;;6.55;2.35;;;;;;;;;;5048292;28;20230;-17
2022/08/30 01:19:16;;;;;;;5.55;2.03;;;;;;;;;;5047677;28;20226;-17
2022/08/30 01:21:45;;;;;;;3.55;2.08;;;;;;;;;;5043680;28;21060;-16
2022/08/30 01:24:13;;;;;;;2.72;1.73;;;;;;;;;;5044359;28;20234;-17
2022/08/30 01:26:41;;;;;;;3.95;1.80;;;;;;;;;;5049451;28;20237;-17
2022/08/30 01:29:09;;;;;;;2.15;1.92;;;;;;;;;;5049330;28;20226;-17
2022/08/30 01:31:36;;;;;;;6.25;1.95;;;;;;;;;;5048249;28;20237;-17
2022/08/30 01:34:04;;;;;;;2.70;2.00;;;;;;;;;;5049677;28;20241;-17
2022/08/30 01:36:31;;;;;;;2.25;2.00;;;;;;;;;;5049100;28;20237;-17
2022/08/30 01:38:58;;;;;;;4.82;1.88;;;;;;;;;;5049252;28;21518;-17
2022/08/30 01:41:28;;;;;;;2.83;1.90;;;;;;;;;;5045826;28;20325;-17
2022/08/30 01:43:57;;;;;;;4.88;2.00;;;;;;;;;;5040559;28;20241;-17
2022/08/30 01:46:25;;;;;;;3.92;2.03;;;;;;;;;;5049469;28;20234;-17
2022/08/30 01:48:54;;;;;;;2.80;1.63;;;;;;;;;;5049510;28;20238;-17
2022/08/30 01:51:22;;;;;;;4.15;2.00;;;;;;;;;;5048266;28;20230;-16
2022/08/30 01:53:49;;;;;;;3.95;2.20;;;;;;;;;;5051268;28;20233;-17
2022/08/30 01:56:17;;;;;;;2.38;1.65;;;;;;;;;;5052228;28;20236;-17
2022/08/30 01:58:46;;;;;;;2.38;1.70;;;;;;;;;;5052291;28;20226;-17
2022/08/30 02:01:14;;;;;;;4.20;2.30;;;;;;;;;;5043871;28;20242;-17
2022/08/30 02:03:42;;;;;;;2.92;2.00;;;;;;;;;;5037703;28;20230;-18
2022/08/30 02:06:10;;;;;;;4.50;1.70;;;;;;;;;;5051809;28;20222;-17
2022/08/30 02:08:39;;;;;;;4.63;2.28;;;;;;;;;;5052050;28;20245;-16
2022/08/30 02:11:06;;;;;;;4.35;2.10;;;;;;;;;;5051868;28;20241;-17
2022/08/30 02:13:34;;;;;;;2.45;1.80;;;;;;;;;;5052074;28;20245;-17
2022/08/30 02:16:02;;;;;;;4.20;2.47;;;;;;;;;;5051565;28;20728;-17
2022/08/30 02:18:30;;;;;;;3.60;2.33;;;;;;;;;;5052363;28;20238;-16
2022/08/30 02:23:24;;;;;;;3.47;2.17;;;;;;;;;;4987549;28;20236;-14
2022/08/30 02:25:51;;;;;;;2.85;2.10;;;;;;;;;;4982850;28;20230;-13
2022/08/30 02:28:19;;;;;;;4.57;2.05;;;;;;;;;;4984199;28;20255;-13
2022/08/30 02:30:46;;;;;;;3.17;2.10;;;;;;;;;;4992972;28;20238;-13
2022/08/30 02:33:15;;;;;;;3.90;2.35;;;;;;;;;;4993878;28;20230;-14
2022/08/30 02:35:43;;;;;;;4.30;1.80;;;;;;;;;;5007837;28;20239;-14
2022/08/30 02:38:10;;;;;;;3.45;1.88;;;;;;;;;;4996344;28;20262;-14
2022/08/30 02:40:38;;;;;;;5.15;2.20;;;;;;;;;;4992864;28;20234;-13
2022/08/30 02:43:06;;;;;;;5.18;2.40;;;;;;;;;;4992164;28;20228;-13
2022/08/30 02:45:33;;;;;;;4.40;2.00;;;;;;;;;;4992276;28;20236;-14
2022/08/30 02:48:01;;;;;;;4.47;1.92;;;;;;;;;;4988736;28;20248;-14
2022/08/30 02:50:30;;;;;;;2.72;2.13;;;;;;;;;;4992153;28;20257;-14
2022/08/30 02:52:57;;;;;;;2.38;2.00;;;;;;;;;;4992250;28;20228;-13
2022/08/30 02:55:24;;;;;;;3.25;2.70;;;;;;;;;;4992809;28;20242;-13
2022/08/30 02:57:52;;;;;;;4.38;2.47;;;;;;;;;;4980495;28;20235;-14
2022/08/30 03:00:19;;;;;;;2.80;2.33;;;;;;;;;;4979903;28;20237;-14
2022/08/30 03:02:48;;;;;;;4.57;2.45;;;;;;;;;;4988294;28;20236;-13
2022/08/30 03:05:15;;;;;;;5.70;2.55;;;;;;;;;;4991511;28;20228;-14
2022/08/30 03:07:46;;;;;;;3.80;2.38;;;;;;;;;;4974278;28;21039;-14
2022/08/30 03:10:13;;;;;;;4.55;2.33;;;;;;;;;;4982819;28;20247;-14
2022/08/30 03:12:41;;;;;;;5.90;2.50;;;;;;;;;;4991534;28;20235;-14
2022/08/30 03:15:09;;;;;;;3.90;2.33;;;;;;;;;;4991763;28;20236;-14
2022/08/30 03:17:36;;;;;;;4.47;2.00;;;;;;;;;;4992032;28;20247;-13
2022/08/30 03:20:04;;;;;;;5.35;2.10;;;;;;;;;;4991866;28;20243;-13
2022/08/30 03:22:31;;;;;;;3.28;2.10;;;;;;;;;;5003519;28;20744;-14
2022/08/30 03:25:00;;;;;;;2.88;2.33;;;;;;;;;;4990825;28;20228;-13
2022/08/30 03:27:28;;;;;;;2.72;2.45;;;;;;;;;;4991634;28;21154;-13
2022/08/30 03:29:55;;;;;;;3.85;2.20;;;;;;;;;;4991610;28;20364;-13
2022/08/30 03:32:23;;;;;;;3.70;2.33;;;;;;;;;;4999064;28;20734;-13
2022/08/30 03:34:50;;;;;;;2.55;1.85;;;;;;;;;;4992083;28;20236;-13
2022/08/30 03:37:18;;;;;;;3.75;2.08;;;;;;;;;;5000068;28;20322;-13
2022/08/30 03:39:52;;;;;;;4.75;2.03;;;;;;;;;;4981589;28;20243;-14
2022/08/30 03:42:20;;;;;;;2.92;2.10;;;;;;;;;;4991008;28;20375;-13
2022/08/30 03:44:50;;;;;;;2.28;2.00;;;;;;;;;;4991570;28;20228;-14
2022/08/30 03:47:19;;;;;;;3.85;2.20;;;;;;;;;;4991206;28;20244;-14
2022/08/30 03:49:46;;;;;;;4.28;1.98;;;;;;;;;;4991501;28;20228;-14
2022/08/30 03:52:13;;;;;;;2.90;1.75;;;;;;;;;;4991404;28;20615;-14
2022/08/30 03:54:42;;;;;;;4.25;2.08;;;;;;;;;;4991268;28;20323;-14
2022/08/30 03:57:09;;;;;;;4.63;2.30;;;;;;;;;;4991241;28;20250;-14
2022/08/30 03:59:47;;;;;;;4.65;2.10;;;;;;;;;;4995917;28;20294;-14
2022/08/30 04:02:15;;;;;;;2.67;1.80;;;;;;;;;;5004788;28;20799;-13
2022/08/30 04:04:42;;;;;;;3.00;2.22;;;;;;;;;;4996493;28;20317;-14
2022/08/30 04:07:10;;;;;;;5.97;1.85;;;;;;;;;;5007499;28;20246;-13
2022/08/30 04:09:37;;;;;;;2.97;1.80;;;;;;;;;;5002455;28;20243;-14
2022/08/30 04:12:04;;;;;;;3.72;2.20;;;;;;;;;;4995249;28;20228;-13
2022/08/30 04:14:32;;;;;;;3.15;2.10;;;;;;;;;;4990962;28;20235;-13
2022/08/30 04:17:00;;;;;;;2.08;1.75;;;;;;;;;;4989711;28;20371;-13
2022/08/30 04:19:28;;;;;;;2.33;1.88;;;;;;;;;;4977095;28;20239;-13
2022/08/30 04:21:56;;;;;;;3.33;1.90;;;;;;;;;;4998570;28;20247;-14
2022/08/30 04:24:23;;;;;;;5.28;2.33;;;;;;;;;;5010331;28;20235;-14
2022/08/30 04:26:51;;;;;;;5.20;2.47;;;;;;;;;;5009915;28;20238;-14
2022/08/30 04:29:18;;;;;;;4.00;2.25;;;;;;;;;;5010168;28;20729;-13
2022/08/30 04:31:46;;;;;;;2.65;2.10;;;;;;;;;;5010277;28;20270;-14
2022/08/30 04:34:14;;;;;;;2.22;1.98;;;;;;;;;;5010042;28;20236;-13
2022/08/30 04:36:42;;;;;;;2.70;2.03;;;;;;;;;;5009951;28;20235;-13
2022/08/30 04:39:14;;;;;;;5.03;2.22;;;;;;;;;;5009928;28;20255;-13
2022/08/30 04:41:42;;;;;;;8.10;2.20;;;;;;;;;;5010239;28;20271;-13
2022/08/30 04:44:09;;;;;;;3.42;1.70;;;;;;;;;;5010531;28;20702;-14
2022/08/30 04:46:45;;;;;;;3.15;2.08;;;;;;;;;;5009985;28;20239;-13
2022/08/30 04:49:14;;;;;;;3.80;2.08;;;;;;;;;;5009454;28;20766;-13
2022/08/30 04:51:42;;;;;;;2.63;1.67;;;;;;;;;;5010324;28;20228;-14
2022/08/30 04:54:09;;;;;;;2.17;1.98;;;;;;;;;;5010390;28;20245;-14
2022/08/30 04:56:36;;;;;;;3.47;2.08;;;;;;;;;;5010164;28;20223;-13
2022/08/30 04:59:04;;;;;;;3.55;2.13;;;;;;;;;;5009669;28;20228;-13
2022/08/30 05:01:32;;;;;;;5.78;2.13;;;;;;;;;;5010161;28;20293;-13
2022/08/30 05:04:12;;;;;;;3.25;2.10;;;;;;;;;;4990183;28;20688;-13
2022/08/30 05:06:40;;;;;;;3.35;2.00;;;;;;;;;;4990645;28;20228;-14
2022/08/30 05:09:08;;;;;;;4.00;1.75;;;;;;;;;;5008732;28;20972;-14
2022/08/30 05:11:35;;;;;;;4.40;2.10;;;;;;;;;;5009677;28;20223;-13
2022/08/30 05:14:03;;;;;;;3.30;1.80;;;;;;;;;;5009838;28;20286;-14
2022/08/30 05:16:30;;;;;;;3.72;1.92;;;;;;;;;;5009875;28;20239;-13
2022/08/30 05:18:57;;;;;;;3.00;1.85;;;;;;;;;;5009785;28;20239;-13
2022/08/30 05:21:25;;;;;;;2.53;1.77;;;;;;;;;;5009134;28;20247;-14
2022/08/30 05:23:54;;;;;;;2.80;2.08;;;;;;;;;;5009380;28;20227;-13
2022/08/30 05:26:22;;;;;;;3.00;1.90;;;;;;;;;;5009449;28;20239;-14
2022/08/30 05:28:51;;;;;;;2.70;1.90;;;;;;;;;;5026155;28;20754;-13
2022/08/30 05:31:19;;;;;;;3.92;2.13;;;;;;;;;;5013664;28;20227;-13
2022/08/30 05:33:47;;;;;;;5.82;1.80;;;;;;;;;;5012545;28;20263;-13
2022/08/30 05:36:15;;;;;;;3.35;1.70;;;;;;;;;;5012865;28;20235;-13
2022/08/30 05:38:42;;;;;;;2.20;1.50;;;;;;;;;;5012806;28;20231;-13
2022/08/30 05:41:11;;;;;;;2.45;1.80;;;;;;;;;;5007089;28;20707;-13
2022/08/30 05:43:39;;;;;;;2.85;1.85;;;;;;;;;;5008673;28;20232;-13
2022/08/30 05:46:06;;;;;;;6.03;2.30;;;;;;;;;;5005294;28;20238;-13
2022/08/30 05:48:34;;;;;;;2.63;2.00;;;;;;;;;;5009508;28;20227;-13
2022/08/30 05:51:02;;;;;;;3.30;1.92;;;;;;;;;;5004820;28;20236;-13
2022/08/30 05:53:30;;;;;;;6.05;2.30;;;;;;;;;;5007349;28;20265;-13
2022/08/30 05:55:57;;;;;;;14.43;2.45;;;;;;;;;;5002376;28;20238;-13
2022/08/30 05:58:26;;;;;;;10.38;3.13;;;;;;;;;;5007557;28;20232;-13
2022/08/30 06:00:53;;;;;;;3.83;2.30;;;;;;;;;;5009269;28;20232;-13
2022/08/30 06:03:20;;;;;;;6.22;2.15;;;;;;;;;;5012142;28;20238;-13
2022/08/30 06:05:48;;;;;;;6.32;2.55;;;;;;;;;;5003312;28;20310;-13
2022/08/30 06:08:15;;;;;;;9.25;2.42;;;;;;;;;;5011930;28;20278;-13
2022/08/30 06:10:43;;;;;;;8.85;2.55;;;;;;;;;;5006981;28;20248;-13
2022/08/30 06:13:10;;;;;;;9.38;2.55;;;;;;;;;;5007250;28;20236;-14
2022/08/30 06:15:39;;;;;;;10.23;2.00;;;;;;;;;;5011676;28;20261;-14
2022/08/30 06:18:06;;;;;;;5.68;2.45;;;;;;;;;;5011996;28;20231;-13
2022/08/30 06:20:34;;;;;;;5.25;2.05;;;;;;;;;;5012130;28;20242;-14
2022/08/30 06:23:01;;;;;;;10.65;2.50;;;;;;;;;;5018953;28;20242;-13
2022/08/30 06:25:29;;;;;;;8.30;2.28;;;;;;;;;;5017829;28;20263;-14
2022/08/30 06:28:08;;;;;;;6.30;1.90;;;;;;;;;;5001493;28;20239;-14
2022/08/30 06:30:35;;;;;;;9.10;1.88;;;;;;;;;;5006413;28;20240;-13
2022/08/30 06:33:04;;;;;;;5.85;2.20;;;;;;;;;;5007550;28;20230;-13
2022/08/30 06:35:31;;;;;;;17.23;2.10;;;;;;;;;;5006347;28;20235;-13
2022/08/30 06:38:13;;;;;;;12.45;2.28;;;;;;;;;;5004671;28;20276;-13
2022/08/30 06:40:40;;;;;;;9.63;2.05;;;;;;;;;;5008966;28;20238;-14
2022/08/30 06:43:08;;;;;;;13.25;1.88;;;;;;;;;;5007385;28;20235;-13
2022/08/30 06:45:36;;;;;;;11.45;2.08;;;;;;;;;;5004006;28;20234;-13
2022/08/30 06:48:05;;;;;;;15.63;1.88;;;;;;;;;;5005894;28;20236;-14
2022/08/30 06:50:32;;;;;;;15.55;1.90;;;;;;;;;;5012946;28;20752;-13
2022/08/30 06:53:04;;;;;;;20.75;2.28;;;;;;;;;;5011835;28;20227;-13
2022/08/30 06:55:32;;;;;;;14.07;2.22;;;;;;;;;;5011737;28;20238;-13
2022/08/30 06:57:59;;;;;;;14.68;1.92;;;;;;;;;;5009234;28;20235;-13
2022/08/30 07:00:26;;;;;;;6.88;1.95;;;;;;;;;;5006230;28;20242;-13
2022/08/30 07:02:54;;;;;;;6.22;1.42;;;;;;;;;;5011806;28;20231;-14
2022/08/30 07:05:23;;;;;;;8.23;1.90;;;;;;;;;;5012570;28;20282;-14
2022/08/30 07:07:52;;;;;;;17.27;2.00;;;;;;;;;;5010654;28;20741;-14
2022/08/30 07:10:20;;;;;;;7.00;1.58;;;;;;;;;;5006816;28;20325;-14
2022/08/30 07:12:47;;;;;;;7.15;1.55;;;;;;;;;;5010911;28;20227;-13
2022/08/30 07:15:15;;;;;;;8.23;1.63;;;;;;;;;;5011699;28;20243;-13
2022/08/30 07:20:29;;;;;;;8.10;1.60;;;;;;;;;;5005726;28;20718;-13
2022/08/30 07:23:07;;;;;;;4.93;1.52;;;;;;;;;;5013278;28;20741;-13
2022/08/30 07:25:35;;;;;;;5.78;1.70;;;;;;;;;;5008307;28;20228;-14
2022/08/30 07:28:03;;;;;;;4.93;1.27;;;;;;;;;;5017763;28;20239;-13
2022/08/30 07:30:31;;;;;;;1.80;1.38;;;;;;;;;;5015158;28;20619;-13
2022/08/30 07:32:58;;;;;;;6.03;1.40;;;;;;;;;;5007183;28;20658;-14
2022/08/30 07:35:26;;;;;;;2.58;1.50;;;;;;;;;;5010140;28;20239;-13
2022/08/30 07:37:54;;;;;;;4.82;1.80;;;;;;;;;;5003954;28;20254;-13
2022/08/30 07:40:23;;;;;;;2.35;1.42;;;;;;;;;;5004743;28;20271;-13
2022/08/30 07:42:50;;;;;;;4.95;1.48;;;;;;;;;;5001484;28;20235;-14
2022/08/30 07:45:18;;;;;;;3.65;1.58;;;;;;;;;;5002457;28;20723;-13
2022/08/30 07:47:45;;;;;;;8.05;1.90;;;;;;;;;;5009570;28;20242;-14
2022/08/30 07:50:13;;;;;;;11.13;1.90;;;;;;;;;;4997208;28;20238;-13
2022/08/30 07:52:40;;;;;;;7.05;1.48;;;;;;;;;;4999810;28;20873;-13
2022/08/30 07:55:09;;;;;;;2.65;1.13;;;;;;;;;;5007521;28;20319;-13
2022/08/30 07:57:37;;;;;;;4.22;0.88;;;;;;;;;;4998232;28;20284;-13
2022/08/30 08:00:05;;;;;;;4.30;1.20;;;;;;;;;;5005015;28;20237;-13
2022/08/30 08:02:32;;;;;;;5.43;1.45;;;;;;;;;;5004715;28;20623;-13
2022/08/30 08:05:00;;;;;;;6.28;1.20;;;;;;;;;;5003968;28;20236;-13
2022/08/30 08:07:27;;;;;;;4.22;1.33;;;;;;;;;;5004408;28;20239;-13
2022/08/30 08:09:55;;;;;;;4.72;1.38;;;;;;;;;;5006325;28;20236;-13
2022/08/30 08:12:23;;;;;;;4.78;1.13;;;;;;;;;;5009809;28;20900;-13
2022/08/30 08:14:51;;;;;;;8.13;1.42;;;;;;;;;;4996864;28;20258;-13
2022/08/30 08:17:18;;;;;;;8.63;1.17;;;;;;;;;;5009906;28;20231;-14
2022/08/30 08:19:45;;;;;;;15.02;1.40;;;;;;;;;;5010357;28;20227;-13
2022/08/30 08:22:13;;;;;;;4.30;1.27;;;;;;;;;;5006930;28;20247;-13
2022/08/30 08:24:47;;;;;;;11.48;1.88;;;;;;;;;;5007935;28;20230;-13
2022/08/30 08:27:15;;;;;;;10.02;1.58;;;;;;;;;;5010187;28;20236;-13
2022/08/30 08:29:43;;;;;;;8.55;1.70;;;;;;;;;;5008766;28;20242;-13
2022/08/30 08:32:11;;;;;;;3.42;1.00;;;;;;;;;;5010715;28;20247;-13
2022/08/30 08:34:38;;;;;;;3.65;1.40;;;;;;;;;;5010047;28;22080;-13
2022/08/30 08:37:06;;;;;;;5.85;1.75;;;;;;;;;;5010666;28;20227;-13
2022/08/30 08:39:33;;;;;;;5.43;1.40;;;;;;;;;;5009463;28;20227;-13
2022/08/30 08:42:03;;;;;;;4.10;1.30;;;;;;;;;;5006180;28;20240;-13
2022/08/30 08:44:37;;;;;;;10.63;1.38;;;;;;;;;;5006223;28;20257;-13
2022/08/30 08:47:09;;;;;;;3.33;1.17;;;;;;;;;;5000829;28;20235;-13
2022/08/30 08:49:37;;;;;;;2.25;1.20;;;;;;;;;;5010058;28;20242;-13
2022/08/30 08:54:51;;;;;;;4.82;1.27;;;;;;;;;;5009712;28;20261;-13
2022/08/30 08:57:18;;;;;;;3.95;1.33;;;;;;;;;;5010051;28;20235;-13
2022/08/30 08:59:53;;;;;;;7.68;1.45;;;;;;;;;;5001081;28;20282;-13
2022/08/30 09:02:24;;;;;;;11.13;1.48;;;;;;;;;;5005253;28;20974;-13
2022/08/30 09:04:53;;;;;;;6.78;1.27;;;;;;;;;;5007800;28;20232;-13
2022/08/30 09:07:21;;;;;;;6.47;1.33;;;;;;;;;;5019577;28;20231;-13
2022/08/30 09:09:48;;;;;;;4.50;1.30;;;;;;;;;;5012874;28;20257;-13
2022/08/30 09:12:16;;;;;;;12.07;1.67;;;;;;;;;;5011856;28;21006;-13
2022/08/30 09:14:44;;;;;;;14.98;1.60;;;;;;;;;;5003429;28;20274;-13
2022/08/30 09:17:13;;;;;;;6.35;1.20;;;;;;;;;;4998986;28;20231;-13
2022/08/30 09:19:44;;;;;;;8.60;1.77;;;;;;;;;;5012391;28;20318;-13
2022/08/30 09:22:12;;;;;;;7.30;1.52;;;;;;;;;;5001872;28;20250;-13
2022/08/30 09:24:41;;;;;;;8.07;1.27;;;;;;;;;;5012935;28;20242;-13
2022/08/30 09:27:16;;;;;;;5.72;1.20;;;;;;;;;;4999083;28;20266;-13
2022/08/30 09:29:52;;;;;;;6.38;1.30;;;;;;;;;;5012722;28;20283;-13
2022/08/30 09:32:23;;;;;;;10.98;1.45;;;;;;;;;;5012680;28;20235;-13
2022/08/30 09:34:53;;;;;;;6.85;1.33;;;;;;;;;;5012170;28;20247;-13
2022/08/30 09:37:24;;;;;;;3.05;1.10;;;;;;;;;;5012847;28;20711;-13
2022/08/30 09:39:52;;;;;;;3.55;1.30;;;;;;;;;;5012713;28;20320;-13
2022/08/30 09:42:22;;;;;;;5.45;1.10;;;;;;;;;;5012576;28;20278;-13
2022/08/30 09:44:49;;;;;;;4.63;1.20;;;;;;;;;;5011690;28;20227;-13
2022/08/30 09:47:18;;;;;;;1.98;0.93;;;;;;;;;;5012346;28;20699;-13
2022/08/30 09:49:50;;;;;;;2.35;1.30;;;;;;;;;;5012972;28;20235;-13
2022/08/30 09:52:23;;;;;;;2.10;1.10;;;;;;;;;;5012213;28;20831;-13
2022/08/30 09:55:03;;;;;;;2.95;1.00;;;;;;;;;;4998024;28;20235;-13
2022/08/30 09:57:32;;;;;;;2.42;1.02;;;;;;;;;;5012169;28;20254;-13
2022/08/30 10:00:02;;;;;;;3.22;1.40;;;;;;;;;;5012060;28;20236;-13
2022/08/30 10:02:33;;;;;;;3.45;0.90;;;;;;;;;;5012285;28;20236;-13
2022/08/30 10:05:03;;;;;;;4.00;1.40;;;;;;;;;;5011831;28;20940;-13
2022/08/30 10:07:33;;;;;;;3.67;1.23;;;;;;;;;;5003067;28;20776;-13
2022/08/30 10:10:01;;;;;;;3.17;1.40;;;;;;;;;;5013908;28;20238;-13
2022/08/30 10:12:30;;;;;;;3.65;1.02;;;;;;;;;;5004809;28;20243;-13
2022/08/30 10:14:59;;;;;;;5.15;1.00;;;;;;;;;;5006255;28;20236;-13
2022/08/30 10:17:37;;;;;;;7.50;1.52;;;;;;;;;;5006814;28;20329;-13
2022/08/30 10:20:09;;;;;;;3.20;0.93;;;;;;;;;;5011494;28;20374;-13
2022/08/30 10:22:38;;;;;;;4.85;1.05;;;;;;;;;;5011101;28;20385;-13
2022/08/30 10:25:09;;;;;;;4.68;1.23;;;;;;;;;;5010890;28;20227;-13
2022/08/30 10:27:43;;;;;;;5.10;1.25;;;;;;;;;;5011569;28;20242;-13
2022/08/30 10:30:12;;;;;;;2.15;1.13;;;;;;;;;;5012202;28;20250;-13
2022/08/30 10:32:41;;;;;;;2.20;0.98;;;;;;;;;;5011220;28;20326;-13
2022/08/30 10:35:13;;;;;;;10.25;1.20;;;;;;;;;;5004394;28;20282;-13
2022/08/30 10:37:47;;;;;;;5.85;1.27;;;;;;;;;;5011276;28;20760;-13
2022/08/30 10:43:13;;;;;;;2.72;1.10;;;;;;;;;;4980433;28;20239;-13
2022/08/30 10:45:41;;;;;;;2.17;0.95;;;;;;;;;;5010991;28;20231;-13
2022/08/30 10:48:11;;;;;;;2.38;1.08;;;;;;;;;;5011500;28;20284;-13
2022/08/30 10:50:40;;;;;;;3.30;0.93;;;;;;;;;;5011129;28;20236;-13
2022/08/30 10:53:10;;;;;;;2.83;0.90;;;;;;;;;;5007301;28;20240;-13
2022/08/30 10:55:43;;;;;;;1.83;0.82;;;;;;;;;;5002017;28;20227;-13
2022/08/30 10:58:16;;;;;;;3.60;0.95;;;;;;;;;;5011160;28;20228;-13
2022/08/30 11:00:45;;;;;;;2.72;1.20;;;;;;;;;;5010649;28;20234;-13
2022/08/30 11:03:18;;;;;;;2.25;1.10;;;;;;;;;;5011440;28;20235;-13
2022/08/30 11:06:00;;;;;;;2.85;1.10;;;;;;;;;;5021413;28;20237;-13
2022/08/30 11:08:41;;;;;;;6.82;1.30;;;;;;;;;;5017305;28;20235;-13
2022/08/30 11:11:12;;;;;;;3.92;1.08;;;;;;;;;;5018604;28;20242;-13
2022/08/30 11:13:39;;;;;;;4.00;1.13;;;;;;;;;;5009603;28;20967;-13
2022/08/30 11:16:07;;;;;;;4.22;1.20;;;;;;;;;;5010838;28;20231;-13
2022/08/30 11:18:42;;;;;;;2.97;0.85;;;;;;;;;;5011176;28;20232;-13
2022/08/30 11:21:16;;;;;;;2.38;0.80;;;;;;;;;;5011196;28;20231;-13
2022/08/30 11:23:57;;;;;;;2.13;1.00;;;;;;;;;;5007269;28;20236;-13
2022/08/30 11:26:39;;;;;;;3.55;1.17;;;;;;;;;;5010536;28;20238;-13
2022/08/30 11:29:26;;;;;;;3.15;1.13;;;;;;;;;;4990493;28;20399;-13
2022/08/30 11:31:53;;;;;;;3.67;1.40;;;;;;;;;;5009552;28;20238;-13
2022/08/30 11:34:36;;;;;;;3.65;1.20;;;;;;;;;;4997628;28;20239;-13
2022/08/30 11:37:04;;;;;;;2.42;1.08;;;;;;;;;;5008486;28;20251;-13
2022/08/30 11:39:51;;;;;;;2.10;0.80;;;;;;;;;;4999491;28;20769;-13
2022/08/30 11:42:26;;;;;;;2.00;0.88;;;;;;;;;;5008605;28;20913;-13
2022/08/30 11:45:10;;;;;;;5.03;1.10;;;;;;;;;;4997926;28;20310;-13
2022/08/30 11:47:39;;;;;;;2.70;0.98;;;;;;;;;;5005330;28;20363;-13
2022/08/30 11:50:07;;;;;;;5.75;1.17;;;;;;;;;;5010540;28;20825;-13
2022/08/30 11:52:47;;;;;;;2.13;0.90;;;;;;;;;;5010669;28;20253;-13
2022/08/30 11:55:25;;;;;;;2.38;0.95;;;;;;;;;;4998886;28;20231;-13
2022/08/30 11:57:55;;;;;;;2.17;1.10;;;;;;;;;;5010646;28;20229;-13
2022/08/30 12:00:27;;;;;;;2.45;0.98;;;;;;;;;;5010844;28;20235;-13
2022/08/30 12:02:55;;;;;;;4.07;1.20;;;;;;;;;;5010338;28;20231;-13
2022/08/30 12:05:44;;;;;;;2.50;1.02;;;;;;;;;;4998327;28;20231;-13
2022/08/30 12:08:39;;;;;;;2.05;1.00;;;;;;;;;;5010203;28;20251;-13
2022/08/30 12:11:30;;;;;;;1.88;0.88;;;;;;;;;;5009953;28;20308;-13
2022/08/30 12:13:58;;;;;;;2.33;0.80;;;;;;;;;;4998102;28;20338;-13
2022/08/30 12:16:34;;;;;;;4.82;0.93;;;;;;;;;;5009909;28;20235;-13
2022/08/30 12:19:09;;;;;;;2.55;0.90;;;;;;;;;;4997563;28;20238;-13
2022/08/30 12:21:39;;;;;;;5.25;1.33;;;;;;;;;;5009350;28;20274;-13
2022/08/30 12:24:13;;;;;;;3.45;1.02;;;;;;;;;;5009970;28;21149;-13
2022/08/30 12:26:41;;;;;;;1.98;1.08;;;;;;;;;;5009659;28;20695;-13
2022/08/30 12:29:15;;;;;;;2.70;0.90;;;;;;;;;;5009709;28;20986;-13
2022/08/30 12:31:43;;;;;;;1.58;1.10;;;;;;;;;;5009921;28;20640;-15
2022/08/30 12:34:16;;;;;;;4.32;1.30;;;;;;;;;;5006044;28;20361;-15
2022/08/30 12:36:49;;;;;;;3.47;1.27;;;;;;;;;;5000665;28;20698;-15
2022/08/30 12:39:17;;;;;;;3.40;1.00;;;;;;;;;;5006165;28;20733;-15
2022/08/30 12:41:44;;;;;;;3.08;1.10;;;;;;;;;;5007261;28;20243;-13
2022/08/30 12:44:13;;;;;;;3.58;0.95;;;;;;;;;;5005398;28;20235;-15
2022/08/30 12:46:42;;;;;;;9.07;1.23;;;;;;;;;;5005286;28;20235;-15
2022/08/30 12:49:09;;;;;;;7.18;1.40;;;;;;;;;;5004969;28;20250;-15
2022/08/30 12:51:38;;;;;;;4.68;1.00;;;;;;;;;;5003463;28;20318;-15
2022/08/30 12:54:15;;;;;;;3.03;1.33;;;;;;;;;;5004595;28;20247;-15
2022/08/30 12:56:49;;;;;;;5.20;1.13;;;;;;;;;;5001535;28;20223;-15
2022/08/30 12:59:36;;;;;;;3.13;0.95;;;;;;;;;;5006407;28;20231;-16
2022/08/30 13:02:07;;;;;;;3.60;1.50;;;;;;;;;;5005340;28;20235;-16
2022/08/30 13:04:47;;;;;;;6.53;0.95;;;;;;;;;;5005141;28;20718;-17
2022/08/30 13:07:24;;;;;;;3.15;1.23;;;;;;;;;;5004324;28;20239;-15
2022/08/30 13:09:56;;;;;;;2.78;0.90;;;;;;;;;;5008459;28;20235;-14
2022/08/30 13:12:24;;;;;;;8.25;1.35;;;;;;;;;;5009099;28;20237;-14
2022/08/30 13:14:52;;;;;;;17.40;2.60;;;;;;;;;;5008079;28;20790;-13
2022/08/30 13:17:22;;;;;;;3.80;1.17;;;;;;;;;;5010686;28;20266;-14
2022/08/30 13:19:57;;;;;;;5.78;1.60;;;;;;;;;;5008349;28;20232;-14
2022/08/30 13:22:25;;;;;;;3.33;1.00;;;;;;;;;;5005421;28;20254;-14
2022/08/30 13:24:53;;;;;;;3.80;1.10;;;;;;;;;;5008280;28;20262;-14
2022/08/30 13:27:20;;;;;;;4.60;1.20;;;;;;;;;;5008636;28;21073;-14
2022/08/30 13:29:48;;;;;;;5.47;0.98;;;;;;;;;;5009261;28;20244;-14
2022/08/30 13:32:16;;;;;;;2.25;1.30;;;;;;;;;;5009006;28;21003;-14
2022/08/30 13:34:44;;;;;;;2.05;1.08;;;;;;;;;;5008845;28;20239;-14
2022/08/30 13:37:13;;;;;;;6.78;1.33;;;;;;;;;;5007984;28;20241;-14
2022/08/30 13:40:00;;;;;;;3.80;1.40;;;;;;;;;;5008983;28;20236;-14
2022/08/30 13:42:31;;;;;;;1.98;1.17;;;;;;;;;;5006262;28;20327;-14
2022/08/30 13:44:59;;;;;;;4.38;1.25;;;;;;;;;;5009066;28;20231;-14
2022/08/30 13:47:26;;;;;;;2.25;0.95;;;;;;;;;;5008459;28;20230;-14
2022/08/30 13:50:04;;;;;;;2.40;1.20;;;;;;;;;;5010864;28;20235;-14
2022/08/30 13:52:31;;;;;;;1.45;0.93;;;;;;;;;;5008615;28;20231;-14
2022/08/30 13:54:59;;;;;;;1.23;0.80;;;;;;;;;;5011338;28;20239;-14
2022/08/30 13:57:27;;;;;;;2.10;1.13;;;;;;;;;;5002922;28;20246;-14
2022/08/30 14:00:16;;;;;;;3.60;1.00;;;;;;;;;;5009618;28;20248;-14
2022/08/30 14:02:44;;;;;;;3.40;0.90;;;;;;;;;;4998917;28;20242;-14
2022/08/30 14:05:22;;;;;;;2.63;1.23;;;;;;;;;;5006885;28;20334;-14
2022/08/30 14:08:10;;;;;;;1.33;0.80;;;;;;;;;;5010548;28;20224;-15
2022/08/30 14:10:57;;;;;;;3.00;1.15;;;;;;;;;;5010644;28;20235;-15
2022/08/30 14:13:27;;;;;;;3.40;1.10;;;;;;;;;;5004060;28;20232;-15
2022/08/30 14:15:56;;;;;;;2.35;1.20;;;;;;;;;;5006820;28;20243;-15
2022/08/30 14:18:43;;;;;;;2.08;1.25;;;;;;;;;;5002399;28;20236;-15
2022/08/30 14:21:12;;;;;;;1.73;0.60;;;;;;;;;;5008696;28;20231;-15
2022/08/30 14:23:40;;;;;;;1.85;1.08;;;;;;;;;;5010142;28;20239;-15
2022/08/30 14:26:10;;;;;;;1.98;0.98;;;;;;;;;;4999331;28;20228;-15
2022/08/30 14:28:38;;;;;;;3.75;1.05;;;;;;;;;;5004027;28;20227;-15
2022/08/30 14:31:05;;;;;;;3.75;1.02;;;;;;;;;;5010619;28;20231;-15
2022/08/30 14:33:33;;;;;;;2.38;1.20;;;;;;;;;;5008155;28;20250;-15
2022/08/30 14:36:00;;;;;;;2.03;1.08;;;;;;;;;;5008616;28;20250;-15
2022/08/30 14:38:29;;;;;;;2.42;0.93;;;;;;;;;;5009364;28;20235;-15
2022/08/30 14:40:56;;;;;;;3.60;0.95;;;;;;;;;;5011629;28;20235;-15
2022/08/30 14:43:25;;;;;;;2.35;1.17;;;;;;;;;;5011306;28;20232;-15
2022/08/30 14:45:52;;;;;;;1.83;1.08;;;;;;;;;;5010156;28;20239;-15
2022/08/30 14:48:19;;;;;;;1.63;1.00;;;;;;;;;;5009647;28;20306;-15
2022/08/30 14:50:47;;;;;;;2.70;1.00;;;;;;;;;;4997174;28;20239;-14
2022/08/30 14:53:14;;;;;;;3.40;1.10;;;;;;;;;;5002996;28;20242;-14
2022/08/30 14:55:44;;;;;;;3.78;1.00;;;;;;;;;;5003239;28;20742;-15
2022/08/30 14:58:15;;;;;;;3.00;1.15;;;;;;;;;;5000806;28;20930;-15
2022/08/30 15:00:43;;;;;;;12.05;1.20;;;;;;;;;;5007371;28;21055;-14
2022/08/30 15:03:11;;;;;;;1.88;1.00;;;;;;;;;;5010804;28;20734;-14
2022/08/30 15:05:38;;;;;;;5.53;1.00;;;;;;;;;;5002960;28;20256;-15
2022/08/30 15:08:06;;;;;;;5.03;1.33;;;;;;;;;;5010621;28;20239;-15
2022/08/30 15:10:33;;;;;;;4.25;1.48;;;;;;;;;;5010692;28;20231;-15